Lovejoy, Illinois
Current Conditions -  °F | °C
As of 10:53 AM on Friday 24 Oct 2014 (Local Time) from KCPS Reporting Station
Clear Clear  
Wind Chill: 63°   Ceiling: Unl
Heat Index: 63°   Visibility: 10mi
Dew Point: 55°   Wind: 3mph
Humidity: 75%   Direction: 240°WSW
Pressure: 30.13"   Gusts: NA
Location:  38.63°N, 90.15°W
Report Text: KCPS 241553Z 24003KT 10SM CLR 17/13 A3013 RMK AO2 SLP201 T01720128
Loading
Personal Weather Stations






























Interactive Weather Map New forecast layout! Learn more

10-Day Weather Forecast

Advertisements
Track Severe Weather on mobile